Time;durP1;ratioP1;P1;durP2;ratioP2;P2;SDS_P1;SDS_P2;PMS_P1;PMS_P2;Temp;Humidity;BMP_temperature;BMP_pressure;BME280_temperature;BME280_humidity;BME280_pressure;Samples;Min_cycle;Max_cycle;Signal;HPM_P1;HPM_P2
2023/01/08 00:01:58;;;;;;;3.30;3.00;;;9.60;99.90;;;;;;5017465;28;20130;-85
2023/01/08 00:04:24;;;;;;;3.30;3.00;;;9.60;99.90;;;;;;5024354;28;20164;-85
2023/01/08 00:06:49;;;;;;;4.07;3.08;;;9.60;99.90;;;;;;5018785;28;20041;-85
2023/01/08 00:09:15;;;;;;;4.13;2.90;;;9.60;99.90;;;;;;5003610;28;20041;-85
2023/01/08 00:11:41;;;;;;;3.70;3.30;;;10.10;99.90;;;;;;5024751;28;20049;-86
2023/01/08 00:14:07;;;;;;;3.47;3.10;;;9.90;99.90;;;;;;4995123;28;20060;-86
2023/01/08 00:16:32;;;;;;;3.88;3.03;;;9.60;99.90;;;;;;5019170;28;20045;-86
2023/01/08 00:18:58;;;;;;;3.92;3.25;;;9.60;99.90;;;;;;5028404;28;20041;-87
2023/01/08 00:21:24;;;;;;;3.55;3.25;;;9.60;99.90;;;;;;5026849;28;20052;-87
2023/01/08 00:23:49;;;;;;;5.35;3.38;;;9.20;99.90;;;;;;5036046;28;20114;-87
2023/01/08 00:26:15;;;;;;;5.45;3.75;;;9.60;99.90;;;;;;5027524;28;20089;-86
2023/01/08 00:28:40;;;;;;;3.97;3.53;;;9.60;99.90;;;;;;5032523;28;20064;-85
2023/01/08 00:31:08;;;;;;;3.63;3.33;;;9.60;99.90;;;;;;5027855;28;20098;-85
2023/01/08 00:33:35;;;;;;;4.80;3.00;;;9.70;99.90;;;;;;5024343;28;20064;-86
2023/01/08 00:36:07;;;;;;;3.90;3.30;;;9.70;99.90;;;;;;5026362;28;20056;-86
2023/01/08 00:38:32;;;;;;;4.25;3.28;;;9.70;99.90;;;;;;5029110;28;20472;-87
2023/01/08 00:40:58;;;;;;;5.93;3.70;;;9.70;99.90;;;;;;5013563;28;20046;-86
2023/01/08 00:43:24;;;;;;;4.03;3.30;;;9.70;99.90;;;;;;5020407;28;20104;-86
2023/01/08 00:45:52;;;;;;;3.80;3.50;;;9.70;99.90;;;;;;5010668;28;20099;-86
2023/01/08 00:48:19;;;;;;;4.78;3.38;;;9.70;99.90;;;;;;5008493;28;20476;-86
2023/01/08 00:50:44;;;;;;;3.58;3.28;;;9.70;99.90;;;;;;5035097;28;20125;-87
2023/01/08 00:53:10;;;;;;;3.85;3.20;;;9.70;99.90;;;;;;5028849;28;20120;-85
2023/01/08 00:55:36;;;;;;;3.33;3.03;;;9.70;99.90;;;;;;5027813;28;20053;-85
2023/01/08 00:58:02;;;;;;;5.40;3.20;;;9.70;99.90;;;;;;5010874;28;20057;-86
2023/01/08 01:00:27;;;;;;;4.35;2.90;;;9.70;99.90;;;;;;5024008;28;20061;-86
2023/01/08 01:02:53;;;;;;;3.40;3.10;;;9.70;99.90;;;;;;5023958;28;20041;-85
2023/01/08 01:05:19;;;;;;;3.72;3.30;;;9.70;99.90;;;;;;5027180;28;20053;-86
2023/01/08 01:07:45;;;;;;;4.05;3.20;;;9.70;99.90;;;;;;5010218;28;20045;-86
2023/01/08 01:10:12;;;;;;;3.80;3.40;;;9.70;99.90;;;;;;5018063;28;20444;-86
2023/01/08 01:12:38;;;;;;;4.72;3.22;;;9.70;99.90;;;;;;5027629;28;20057;-85
2023/01/08 01:15:10;;;;;;;3.08;2.75;;;9.70;99.90;;;;;;5026486;28;20091;-86
2023/01/08 01:17:38;;;;;;;3.50;2.80;;;9.70;99.90;;;;;;5007729;28;20064;-85
2023/01/08 01:20:05;;;;;;;3.60;2.80;;;9.60;99.90;;;;;;5027658;28;20053;-85
2023/01/08 01:22:30;;;;;;;4.07;2.33;;;9.60;99.90;;;;;;5027581;28;20127;-85
2023/01/08 01:24:56;;;;;;;2.45;2.20;;;9.60;99.90;;;;;;5026261;28;20049;-85
2023/01/08 01:27:22;;;;;;;4.03;2.33;;;9.60;99.90;;;;;;5027573;28;20050;-86
2023/01/08 01:29:47;;;;;;;3.28;2.30;;;9.50;99.90;;;;;;5014506;28;20054;-85
2023/01/08 01:32:13;;;;;;;2.72;1.98;;;9.50;99.90;;;;;;5024982;28;20241;-86
2023/01/08 01:34:38;;;;;;;3.38;2.08;;;9.40;99.90;;;;;;5011664;28;20049;-84
2023/01/08 01:37:05;;;;;;;2.38;1.52;;;9.40;99.90;;;;;;5013556;28;20439;-85
2023/01/08 01:39:30;;;;;;;2.92;1.90;;;9.30;99.90;;;;;;5017624;28;20504;-85
2023/01/08 01:41:56;;;;;;;3.78;1.30;;;9.20;99.90;;;;;;5022496;28;20042;-85
2023/01/08 01:44:51;;;;;;;3.70;1.38;;;9.10;99.90;;;;;;5019091;28;20045;-86
2023/01/08 01:47:32;;;;;;;4.05;1.20;;;9.00;99.90;;;;;;5012223;28;20122;-85
2023/01/08 01:50:15;;;;;;;4.00;1.55;;;9.00;99.90;;;;;;5017095;28;20084;-85
2023/01/08 01:52:42;;;;;;;;;;;8.90;99.90;;;;;;5020218;28;20045;-85
2023/01/08 01:55:10;;;;;;;4.93;1.00;;;8.80;99.90;;;;;;5014140;28;19921;-85
2023/01/08 01:57:37;;;;;;;4.93;1.30;;;8.80;99.90;;;;;;5016232;28;20123;-85
2023/01/08 02:00:06;;;;;;;4.68;1.10;;;8.70;99.90;;;;;;5018797;28;20050;-85
2023/01/08 02:02:32;;;;;;;6.20;1.20;;;8.70;99.90;;;;;;5014364;28;20157;-86
2023/01/08 02:04:59;;;;;;;5.50;1.40;;;8.70;99.90;;;;;;5006183;28;20500;-85
2023/01/08 02:07:33;;;;;;;4.47;1.25;;;8.60;99.90;;;;;;5023763;28;20052;-86
2023/01/08 02:10:18;;;;;;;5.38;1.50;;;8.60;99.90;;;;;;5009817;28;20195;-85
2023/01/08 02:12:50;;;;;;;5.97;1.77;;;8.50;99.90;;;;;;5006889;28;20046;-86
2023/01/08 02:15:55;;;;;;;8.32;1.77;;;8.50;99.90;;;;;;4994403;28;20810;-85
2023/01/08 02:18:43;;;;;;;4.00;1.20;;;8.50;99.90;;;;;;5025958;28;20038;-86
2023/01/08 02:21:11;;;;;;;7.03;1.35;;;8.40;99.90;;;;;;5026967;28;20459;-86
2023/01/08 02:23:54;;;;;;;7.80;1.70;;;8.40;99.90;;;;;;5010133;28;20132;-85
2023/01/08 02:26:26;;;;;;;7.90;1.40;;;8.30;99.90;;;;;;5028217;28;20057;-85
2023/01/08 02:29:16;;;;;;;8.02;1.77;;;8.30;99.90;;;;;;5022548;28;20084;-85
2023/01/08 02:31:43;;;;;;;7.65;1.90;;;8.30;99.90;;;;;;4998995;28;20140;-85
2023/01/08 02:34:12;;;;;;;6.45;1.77;;;8.30;99.90;;;;;;5011872;28;20124;-86
2023/01/08 02:36:51;;;;;;;8.35;1.98;;;8.30;99.90;;;;;;5022707;28;20045;-86
2023/01/08 02:39:36;;;;;;;4.80;1.30;;;8.30;99.90;;;;;;5019130;28;20050;-86
2023/01/08 02:42:43;;;;;;;7.57;2.10;;;8.20;99.90;;;;;;5019059;28;20048;-85
2023/01/08 02:45:21;;;;;;;7.85;1.95;;;8.20;99.90;;;;;;5020048;28;20049;-86
2023/01/08 02:48:13;;;;;;;9.25;1.45;;;8.20;99.90;;;;;;5025519;28;20087;-86
2023/01/08 02:50:45;;;;;;;;;;;8.20;99.90;;;;;;5009878;28;20053;-86
2023/01/08 02:53:30;;;;;;;5.65;1.85;;;8.10;99.90;;;;;;5026627;28;19986;-86
2023/01/08 02:56:19;;;;;;;7.93;1.98;;;8.10;99.90;;;;;;5025954;28;20467;-86
2023/01/08 02:58:47;;;;;;;9.30;1.85;;;8.00;99.90;;;;;;5025517;28;20057;-86
2023/01/08 03:01:15;;;;;;;7.47;1.60;;;8.00;99.90;;;;;;5014234;28;20080;-86
2023/01/08 03:03:45;;;;;;;7.03;1.58;;;8.00;99.90;;;;;;5010545;28;20038;-86
2023/01/08 03:06:16;;;;;;;4.57;1.65;;;8.00;99.90;;;;;;5024668;28;20096;-86
2023/01/08 03:08:45;;;;;;;6.43;1.55;;;8.00;99.90;;;;;;5026711;28;20045;-86
2023/01/08 03:11:13;;;;;;;6.80;2.60;;;8.00;99.90;;;;;;5024164;28;20041;-86
2023/01/08 03:13:44;;;;;;;3.90;1.50;;;8.40;99.90;;;;;;5025474;28;20037;-86
2023/01/08 03:16:15;;;;;;;3.70;1.67;;;7.90;99.90;;;;;;5026313;28;20045;-86
2023/01/08 03:18:48;;;;;;;5.70;1.52;;;7.90;99.90;;;;;;5009523;28;20041;-86
2023/01/08 03:21:16;;;;;;;4.70;1.55;;;7.90;99.90;;;;;;5023867;28;20497;-86
2023/01/08 03:23:45;;;;;;;4.88;1.95;;;7.90;99.90;;;;;;5008856;28;20109;-86
2023/01/08 03:26:14;;;;;;;3.88;1.90;;;7.90;99.90;;;;;;5025592;28;20132;-86
2023/01/08 03:28:46;;;;;;;3.80;2.20;;;7.80;99.90;;;;;;5017502;28;20142;-86
2023/01/08 03:31:15;;;;;;;5.90;2.20;;;7.80;99.90;;;;;;5024139;28;20041;-85
2023/01/08 03:33:43;;;;;;;6.38;1.77;;;7.80;99.90;;;;;;5025665;28;20451;-86
2023/01/08 03:36:13;;;;;;;4.13;2.10;;;7.80;99.90;;;;;;5024824;28;20715;-87
2023/01/08 03:38:46;;;;;;;5.72;2.40;;;7.80;99.90;;;;;;5006867;28;20045;-86
2023/01/08 03:41:13;;;;;;;;;;;7.80;99.90;;;;;;5010443;28;20048;-86
2023/01/08 03:43:39;;;;;;;5.65;2.55;;;7.80;99.90;;;;;;5025567;28;19964;-86
2023/01/08 03:46:31;;;;;;;4.30;3.33;;;7.80;99.90;;;;;;5024536;28;20060;-86
2023/01/08 03:48:58;;;;;;;6.20;3.40;;;7.80;99.90;;;;;;5015649;28;20057;-86
2023/01/08 03:51:24;;;;;;;5.70;3.58;;;7.90;99.90;;;;;;5024464;28;20052;-86
2023/01/08 03:53:55;;;;;;;8.57;4.03;;;8.00;99.90;;;;;;5013911;28;20420;-86
2023/01/08 03:56:21;;;;;;;5.03;3.70;;;8.00;99.90;;;;;;5024251;28;20046;-85
2023/01/08 03:58:47;;;;;;;5.15;3.83;;;8.10;99.90;;;;;;5026625;28;20060;-86
2023/01/08 04:01:12;;;;;;;6.75;4.28;;;8.20;99.90;;;;;;5010885;28;20115;-85
2023/01/08 04:03:38;;;;;;;5.95;3.85;;;8.30;99.90;;;;;;5027302;28;20053;-86
2023/01/08 04:06:04;;;;;;;5.93;3.88;;;8.30;99.90;;;;;;5025345;28;20045;-86
2023/01/08 04:08:29;;;;;;;8.65;3.75;;;8.40;99.90;;;;;;5041557;28;20050;-86
2023/01/08 04:10:55;;;;;;;6.35;3.40;;;8.40;99.90;;;;;;5008960;28;20052;-86
2023/01/08 04:13:20;;;;;;;4.82;3.20;;;8.40;99.90;;;;;;5012233;28;20622;-86
2023/01/08 04:15:50;;;;;;;6.10;2.90;;;8.50;99.90;;;;;;5028054;28;20037;-86
2023/01/08 04:18:16;;;;;;;5.43;2.72;;;8.50;99.90;;;;;;5025793;28;20131;-86
2023/01/08 04:20:46;;;;;;;3.42;2.47;;;8.50;99.90;;;;;;5015171;28;20473;-86
2023/01/08 04:23:11;;;;;;;4.05;2.58;;;8.50;99.90;;;;;;5010518;28;20364;-86
2023/01/08 04:25:37;;;;;;;3.15;2.30;;;8.50;99.90;;;;;;5027998;28;20049;-86
2023/01/08 04:28:03;;;;;;;2.58;2.22;;;8.60;99.90;;;;;;5015453;28;20064;-86
2023/01/08 04:30:29;;;;;;;4.68;2.00;;;8.60;99.90;;;;;;5025465;28;20049;-86
2023/01/08 04:32:55;;;;;;;4.38;2.10;;;8.60;99.90;;;;;;5014115;28;20062;-86
2023/01/08 04:35:21;;;;;;;3.53;2.08;;;8.50;99.90;;;;;;5026909;28;20087;-86
2023/01/08 04:37:47;;;;;;;3.92;2.30;;;8.50;99.90;;;;;;5018720;28;20045;-86
2023/01/08 04:40:12;;;;;;;2.20;2.00;;;8.60;99.90;;;;;;5017192;28;20056;-86
2023/01/08 04:42:38;;;;;;;3.55;2.05;;;8.50;99.90;;;;;;5026754;28;20042;-85
2023/01/08 04:45:06;;;;;;;4.13;2.10;;;8.50;99.90;;;;;;5026586;28;20369;-85
2023/01/08 04:47:31;;;;;;;4.20;2.60;;;8.50;99.90;;;;;;5013809;28;20440;-86
2023/01/08 04:49:57;;;;;;;3.17;2.05;;;8.40;99.90;;;;;;5014843;28;20052;-86
2023/01/08 04:52:22;;;;;;;4.18;2.53;;;8.40;99.90;;;;;;5022425;28;20048;-86
2023/01/08 04:54:48;;;;;;;3.05;2.40;;;8.40;99.90;;;;;;5026662;28;20460;-85
2023/01/08 04:57:13;;;;;;;2.90;2.28;;;8.40;99.90;;;;;;5024416;28;20049;-85
2023/01/08 04:59:39;;;;;;;3.35;1.98;;;8.30;99.90;;;;;;5029325;28;20076;-86
2023/01/08 05:02:04;;;;;;;2.97;1.80;;;8.40;99.90;;;;;;5027095;28;20103;-85
2023/01/08 05:04:30;;;;;;;4.38;2.13;;;8.40;99.90;;;;;;5002978;28;20050;-85
2023/01/08 05:06:57;;;;;;;4.78;2.10;;;8.30;99.90;;;;;;5016397;28;20054;-85
2023/01/08 05:09:22;;;;;;;3.58;2.30;;;8.30;99.90;;;;;;5009388;28;20079;-85
2023/01/08 05:11:48;;;;;;;6.47;2.50;;;8.30;99.90;;;;;;5007398;28;20057;-85
2023/01/08 05:14:15;;;;;;;4.78;2.10;;;8.30;99.90;;;;;;5026999;28;20152;-86
2023/01/08 05:16:40;;;;;;;2.97;2.20;;;8.30;99.90;;;;;;5012446;28;20056;-85
2023/01/08 05:19:06;;;;;;;4.15;2.60;;;8.30;99.90;;;;;;5007946;28;20041;-86
2023/01/08 05:21:32;;;;;;;3.97;2.10;;;8.20;99.90;;;;;;5014774;28;20404;-85
2023/01/08 05:23:57;;;;;;;4.57;2.50;;;8.20;99.90;;;;;;5008816;28;20377;-85
2023/01/08 05:26:23;;;;;;;3.70;2.70;;;8.20;99.90;;;;;;5008168;28;20519;-85
2023/01/08 05:28:48;;;;;;;5.85;2.85;;;8.20;99.90;;;;;;5008910;28;20396;-86
2023/01/08 05:31:15;;;;;;;3.72;2.80;;;8.10;99.90;;;;;;5027049;28;20574;-85
2023/01/08 05:33:40;;;;;;;3.38;2.40;;;8.10;99.90;;;;;;5021920;28;20050;-86
2023/01/08 05:36:08;;;;;;;2.90;2.33;;;8.10;99.90;;;;;;5015633;28;20049;-85
2023/01/08 05:38:34;;;;;;;2.67;2.33;;;8.00;99.90;;;;;;5026339;28;20833;-85
2023/01/08 05:40:59;;;;;;;5.93;2.55;;;8.00;99.90;;;;;;5025594;28;20045;-85
2023/01/08 05:43:25;;;;;;;5.15;2.85;;;8.00;99.90;;;;;;5016481;28;20104;-85
2023/01/08 05:45:51;;;;;;;6.40;2.80;;;7.90;99.90;;;;;;5007212;28;20081;-86
2023/01/08 05:48:17;;;;;;;7.85;2.85;;;8.20;99.90;;;;;;5027951;28;20041;-86
2023/01/08 05:50:42;;;;;;;4.50;3.00;;;8.00;99.90;;;;;;5025807;28;20144;-86
2023/01/08 05:53:08;;;;;;;4.22;3.03;;;8.00;99.90;;;;;;5026932;28;20126;-86
2023/01/08 05:55:35;;;;;;;4.20;2.95;;;8.00;99.90;;;;;;5024546;28;20468;-85
2023/01/08 05:58:01;;;;;;;7.22;4.63;;;8.10;99.90;;;;;;5018534;28;20052;-85
2023/01/08 06:00:27;;;;;;;5.35;3.20;;;8.00;99.90;;;;;;5024660;28;20041;-86
2023/01/08 06:02:53;;;;;;;7.90;5.32;;;8.00;99.90;;;;;;5027064;28;20041;-86
2023/01/08 06:05:19;;;;;;;6.97;3.22;;;8.00;99.90;;;;;;5022515;28;20045;-86
2023/01/08 06:07:47;;;;;;;3.97;2.88;;;8.00;99.90;;;;;;5026777;28;20508;-87
2023/01/08 06:10:15;;;;;;;6.57;3.03;;;8.00;99.90;;;;;;5024958;28;20038;-87
2023/01/08 06:12:41;;;;;;;5.40;2.70;;;8.00;99.90;;;;;;5025912;28;20132;-87
2023/01/08 06:15:17;;;;;;;5.65;2.83;;;7.70;99.90;;;;;;5026560;28;20060;-87
2023/01/08 06:17:43;;;;;;;7.63;3.42;;;7.90;99.90;;;;;;5026883;28;20408;-87
2023/01/08 06:20:10;;;;;;;5.13;2.20;;;7.90;99.90;;;;;;5026917;28;20050;-88
2023/01/08 06:22:35;;;;;;;3.72;2.22;;;7.90;99.90;;;;;;5026434;28;20320;-84
2023/01/08 06:25:02;;;;;;;4.53;2.13;;;7.90;99.90;;;;;;5026094;28;20511;-85
2023/01/08 06:27:34;;;;;;;3.70;2.03;;;7.90;99.90;;;;;;5022482;28;20148;-85
2023/01/08 06:29:59;;;;;;;3.55;1.60;;;7.90;99.90;;;;;;5021184;28;20562;-85
2023/01/08 06:32:25;;;;;;;4.13;2.00;;;7.90;99.90;;;;;;5018872;28;20041;-84
2023/01/08 06:34:51;;;;;;;3.53;1.85;;;7.90;99.90;;;;;;5020798;28;20400;-85
2023/01/08 06:37:19;;;;;;;3.78;2.08;;;7.80;99.90;;;;;;5008425;28;20046;-84
2023/01/08 06:39:45;;;;;;;4.28;2.00;;;7.80;99.90;;;;;;5018055;28;20045;-85
2023/01/08 06:42:11;;;;;;;5.30;2.00;;;7.80;99.90;;;;;;5025651;28;20064;-85
2023/01/08 06:44:36;;;;;;;3.80;1.85;;;7.80;99.90;;;;;;5024483;28;20356;-85
2023/01/08 06:47:02;;;;;;;7.03;2.03;;;7.70;99.90;;;;;;5010518;28;20041;-85
2023/01/08 06:49:27;;;;;;;4.13;1.67;;;7.30;99.90;;;;;;4995742;28;20148;-85
2023/01/08 06:51:53;;;;;;;3.15;1.60;;;7.70;99.90;;;;;;5022035;28;20053;-85
2023/01/08 06:54:19;;;;;;;8.00;2.67;;;7.70;99.90;;;;;;5024709;28;20056;-86
2023/01/08 06:56:47;;;;;;;4.50;1.50;;;7.70;99.90;;;;;;5017219;28;20049;-85
2023/01/08 06:59:13;;;;;;;6.30;1.85;;;7.70;99.90;;;;;;5024973;28;20034;-85
2023/01/08 07:01:38;;;;;;;4.80;1.67;;;7.70;99.90;;;;;;5026887;28;20405;-84
2023/01/08 07:04:04;;;;;;;3.20;1.45;;;7.70;99.90;;;;;;5020590;28;20391;-85
2023/01/08 07:06:29;;;;;;;5.78;1.70;;;7.70;99.90;;;;;;5010625;28;20042;-85
2023/01/08 07:08:55;;;;;;;3.60;1.35;;;7.70;99.90;;;;;;5021287;28;20151;-84
2023/01/08 07:11:21;;;;;;;3.15;1.63;;;7.70;99.90;;;;;;5022813;28;20044;-87
2023/01/08 07:13:47;;;;;;;3.83;1.40;;;7.60;99.90;;;;;;5014727;28;20033;-85
2023/01/08 07:16:14;;;;;;;4.20;1.67;;;7.70;99.90;;;;;;5026818;28;20532;-86
2023/01/08 07:18:41;;;;;;;3.67;1.92;;;7.60;99.90;;;;;;5022749;28;20050;-86
2023/01/08 07:21:07;;;;;;;5.50;1.83;;;7.60;99.90;;;;;;5026027;28;20053;-86
2023/01/08 07:23:33;;;;;;;3.78;1.65;;;7.50;99.90;;;;;;5017067;28;20108;-87
2023/01/08 07:26:00;;;;;;;4.72;1.90;;;7.60;99.90;;;;;;5010353;28;20038;-87
2023/01/08 07:28:26;;;;;;;4.57;1.70;;;7.50;99.90;;;;;;5007913;28;20057;-87
2023/01/08 07:30:52;;;;;;;4.32;2.00;;;7.60;99.90;;;;;;5029662;28;20037;-87
2023/01/08 07:33:17;;;;;;;3.90;2.10;;;7.60;99.90;;;;;;5029801;28;20053;-87
2023/01/08 07:35:43;;;;;;;5.63;1.88;;;7.70;99.90;;;;;;5012893;28;20383;-86
2023/01/08 07:38:08;;;;;;;5.47;1.92;;;7.70;99.90;;;;;;5024547;28;20045;-87
2023/01/08 07:40:34;;;;;;;5.43;1.55;;;7.70;99.90;;;;;;5010315;28;20199;-87
2023/01/08 07:43:02;;;;;;;2.72;1.80;;;7.70;99.90;;;;;;5009951;28;20472;-87
2023/01/08 07:45:29;;;;;;;3.50;2.00;;;7.70;99.90;;;;;;5010008;28;20185;-88
2023/01/08 07:47:58;;;;;;;4.72;2.40;;;7.60;99.90;;;;;;5009691;28;20057;-86
2023/01/08 07:50:24;;;;;;;6.38;2.33;;;7.60;99.90;;;;;;5011030;28;20200;-86
2023/01/08 07:52:49;;;;;;;6.82;2.42;;;7.50;99.90;;;;;;5011836;28;20559;-87
2023/01/08 07:55:15;;;;;;;8.45;2.85;;;7.50;99.90;;;;;;5017798;28;20048;-88
2023/01/08 07:57:41;;;;;;;4.78;2.42;;;7.40;99.90;;;;;;5030683;28;20050;-89
2023/01/08 08:00:07;;;;;;;5.75;2.25;;;7.30;99.90;;;;;;5030304;28;20053;-87
2023/01/08 08:02:32;;;;;;;10.88;2.70;;;7.30;99.90;;;;;;5012498;28;20119;-87
2023/01/08 08:04:58;;;;;;;6.25;2.38;;;7.30;99.90;;;;;;5028283;28;20103;-88
2023/01/08 08:07:24;;;;;;;5.05;2.60;;;7.20;99.90;;;;;;5028570;28;20597;-90
2023/01/08 08:09:49;;;;;;;5.90;2.33;;;7.20;99.90;;;;;;5029829;28;20053;-90
2023/01/08 08:12:15;;;;;;;4.93;2.70;;;7.20;99.90;;;;;;5029396;28;20354;-89
2023/01/08 08:14:40;;;;;;;6.10;2.28;;;7.20;99.90;;;;;;5030443;28;20507;-87
2023/01/08 08:17:09;;;;;;;11.73;2.88;;;7.10;99.90;;;;;;5009908;28;20180;-87
2023/01/08 08:19:34;;;;;;;8.32;2.08;;;7.10;99.90;;;;;;5010009;28;20042;-90
2023/01/08 08:22:00;;;;;;;5.28;2.08;;;7.00;99.90;;;;;;5010244;28;20041;-88
2023/01/08 08:24:26;;;;;;;6.57;2.40;;;7.00;99.90;;;;;;5009951;28;20049;-88
2023/01/08 08:26:53;;;;;;;4.32;2.00;;;6.90;99.90;;;;;;5010441;28;20046;-87
2023/01/08 08:29:19;;;;;;;6.10;2.05;;;6.90;99.90;;;;;;4993764;28;20056;-87
2023/01/08 08:31:45;;;;;;;6.22;2.42;;;6.90;99.90;;;;;;5010620;28;20492;-87
2023/01/08 08:34:10;;;;;;;8.88;2.22;;;6.80;99.90;;;;;;5016226;28;20064;-87
2023/01/08 08:36:36;;;;;;;7.63;2.20;;;6.80;99.90;;;;;;5028919;28;20057;-88
2023/01/08 08:39:02;;;;;;;2.92;1.67;;;6.70;99.90;;;;;;4994478;28;20048;-87
2023/01/08 08:41:28;;;;;;;5.65;2.28;;;6.70;99.90;;;;;;4992261;28;20057;-87
2023/01/08 08:43:54;;;;;;;6.13;2.05;;;6.70;99.90;;;;;;5010016;28;20054;-88
2023/01/08 08:46:19;;;;;;;7.97;2.22;;;6.80;99.90;;;;;;5010035;28;20038;-87
2023/01/08 08:48:45;;;;;;;7.43;2.20;;;6.70;99.90;;;;;;5010190;28;20050;-87
2023/01/08 08:51:11;;;;;;;5.78;1.80;;;6.80;99.90;;;;;;5009332;28;20492;-88
2023/01/08 08:53:36;;;;;;;5.90;2.10;;;6.80;99.90;;;;;;5010391;28;20056;-88
2023/01/08 08:56:05;;;;;;;4.57;1.70;;;6.80;99.90;;;;;;5028234;28;20034;-87
2023/01/08 08:58:31;;;;;;;4.15;1.80;;;6.80;99.90;;;;;;5029581;28;20052;-87
2023/01/08 09:01:01;;;;;;;4.95;2.17;;;6.80;99.90;;;;;;5029067;28;20045;-87
2023/01/08 09:03:27;;;;;;;10.70;2.22;;;6.80;99.90;;;;;;5011924;28;20045;-87
2023/01/08 09:05:52;;;;;;;3.42;1.77;;;6.80;99.90;;;;;;5012200;28;20103;-87
2023/01/08 09:08:18;;;;;;;5.05;1.70;;;6.90;99.90;;;;;;5008968;28;20053;-87
2023/01/08 09:10:43;;;;;;;4.57;1.98;;;6.90;99.90;;;;;;5023333;28;20076;-86
2023/01/08 09:13:10;;;;;;;5.60;2.00;;;6.90;99.90;;;;;;5028438;28;20566;-87
2023/01/08 09:15:36;;;;;;;6.32;1.95;;;6.90;99.90;;;;;;5028579;28;20061;-87
2023/01/08 09:18:03;;;;;;;8.10;2.10;;;7.00;99.90;;;;;;5012398;28;20045;-88
2023/01/08 09:20:28;;;;;;;7.13;2.22;;;7.00;99.90;;;;;;5012246;28;20095;-86
2023/01/08 09:22:57;;;;;;;5.80;1.98;;;7.00;99.90;;;;;;5028258;28;20392;-87
2023/01/08 09:25:23;;;;;;;3.92;1.67;;;7.10;99.90;;;;;;5027707;28;20196;-87
2023/01/08 09:27:57;;;;;;;6.40;2.10;;;7.10;99.90;;;;;;5027408;28;20488;-87
2023/01/08 09:30:22;;;;;;;5.45;2.35;;;7.10;99.90;;;;;;5028593;28;20113;-87
2023/01/08 09:32:48;;;;;;;4.75;1.90;;;6.80;99.90;;;;;;5028021;28;20085;-86
2023/01/08 09:35:13;;;;;;;4.63;1.95;;;7.30;99.90;;;;;;5012361;28;20722;-88
2023/01/08 09:37:40;;;;;;;6.32;2.28;;;7.20;99.90;;;;;;5027915;28;20103;-87
2023/01/08 09:40:06;;;;;;;5.70;1.83;;;7.30;99.90;;;;;;5028520;28;20114;-87
2023/01/08 09:42:33;;;;;;;8.65;1.77;;;7.30;99.90;;;;;;5023835;28;20041;-86
2023/01/08 09:45:00;;;;;;;4.93;1.45;;;7.40;99.90;;;;;;5017421;28;20091;-88
2023/01/08 09:47:30;;;;;;;6.90;2.13;;;7.40;99.90;;;;;;5027783;28;20049;-87
2023/01/08 09:50:03;;;;;;;4.10;1.50;;;7.50;99.90;;;;;;5027624;28;20049;-87
2023/01/08 09:52:29;;;;;;;;;;;7.50;99.90;;;;;;5027713;28;20123;-88
2023/01/08 09:54:54;;;;;;;8.15;1.85;;;7.50;99.90;;;;;;5027711;28;20367;-88
2023/01/08 09:57:21;;;;;;;4.90;2.15;;;7.60;99.90;;;;;;5025229;28;20034;-86
2023/01/08 09:59:48;;;;;;;5.10;2.10;;;7.60;99.90;;;;;;5027689;28;20041;-88
2023/01/08 10:02:23;;;;;;;6.05;2.05;;;7.70;99.90;;;;;;5010709;28;20045;-87
2023/01/08 10:04:54;;;;;;;7.55;2.05;;;7.70;99.90;;;;;;5027429;28;20107;-87
2023/01/08 10:07:22;;;;;;;9.03;2.60;;;7.70;99.90;;;;;;5027332;28;20052;-87
2023/01/08 10:09:52;;;;;;;6.63;2.10;;;8.20;99.90;;;;;;5027611;28;20091;-88
2023/01/08 10:12:26;;;;;;;7.30;2.85;;;7.80;99.90;;;;;;5026774;28;20343;-87
2023/01/08 10:14:53;;;;;;;6.50;1.88;;;7.80;99.90;;;;;;5007828;28;20417;-86
2023/01/08 10:17:37;;;;;;;7.93;1.77;;;7.80;99.90;;;;;;5024235;28;20128;-88
2023/01/08 10:20:15;;;;;;;7.28;1.90;;;7.90;99.90;;;;;;5022389;28;20045;-84
2023/01/08 10:22:41;;;;;;;6.93;2.00;;;7.90;99.90;;;;;;5022951;28;20040;-83
2023/01/08 10:25:11;;;;;;;6.47;2.20;;;7.90;99.90;;;;;;5026610;28;20049;-85
2023/01/08 10:27:58;;;;;;;6.22;2.22;;;8.00;99.90;;;;;;5013665;28;20058;-86
2023/01/08 10:30:30;;;;;;;5.82;2.05;;;8.00;99.90;;;;;;5043062;28;20176;-86
2023/01/08 10:33:02;;;;;;;6.67;2.63;;;8.00;99.90;;;;;;5025348;28;20057;-85
2023/01/08 10:35:37;;;;;;;4.63;1.80;;;8.10;99.90;;;;;;5017121;28;21663;-86
2023/01/08 10:38:03;;;;;;;12.75;1.95;;;8.10;99.90;;;;;;5026857;28;20084;-87
2023/01/08 10:40:48;;;;;;;8.77;1.80;;;8.10;99.90;;;;;;5026231;28;20053;-87
2023/01/08 10:43:21;;;;;;;8.98;1.90;;;8.20;99.90;;;;;;5026131;28;20037;-87
2023/01/08 10:45:56;;;;;;;;;;;8.20;99.90;;;;;;5028242;28;20045;-87
2023/01/08 10:48:43;;;;;;;6.68;2.72;;;8.30;99.90;;;;;;5025989;28;19999;-85
2023/01/08 10:51:19;;;;;;;6.03;2.05;;;8.30;99.90;;;;;;5025814;28;20037;-87
2023/01/08 10:53:45;;;;;;;6.85;1.60;;;8.30;99.90;;;;;;5026369;28;20049;-86
2023/01/08 10:56:27;;;;;;;6.10;2.25;;;8.30;99.90;;;;;;5027259;28;20129;-86
2023/01/08 10:58:53;;;;;;;9.52;2.60;;;8.30;99.90;;;;;;5028221;28;20049;-87
2023/01/08 11:01:26;;;;;;;8.85;1.80;;;8.30;99.90;;;;;;5027359;28;20143;-87
2023/01/08 11:03:57;;;;;;;8.35;2.08;;;8.40;99.90;;;;;;5043024;28;20050;-88
2023/01/08 11:06:27;;;;;;;8.93;1.70;;;8.40;99.90;;;;;;5040984;28;20064;-86
2023/01/08 11:09:16;;;;;;;8.23;1.90;;;8.50;99.90;;;;;;5010746;28;20049;-87
2023/01/08 11:11:41;;;;;;;7.10;2.65;;;8.50;99.90;;;;;;5018917;28;20442;-88
2023/01/08 11:14:35;;;;;;;10.93;2.00;;;8.50;99.90;;;;;;5026760;28;20053;-86
2023/01/08 11:17:07;;;;;;;10.05;4.25;;;8.50;99.90;;;;;;5007362;28;21130;-88
2023/01/08 11:19:34;;;;;;;17.48;6.53;;;8.60;99.90;;;;;;5007118;28;20174;-89
2023/01/08 11:22:15;;;;;;;15.75;7.10;;;8.60;99.90;;;;;;5007135;28;20173;-89
2023/01/08 11:24:42;;;;;;;11.18;3.33;;;8.60;99.90;;;;;;5027632;28;20044;-88
2023/01/08 11:27:26;;;;;;;6.93;2.03;;;8.70;99.90;;;;;;5021582;28;20049;-88
2023/01/08 11:29:56;;;;;;;8.88;2.00;;;8.70;99.90;;;;;;5012409;28;20049;-89
2023/01/08 11:32:39;;;;;;;6.45;2.30;;;9.30;99.90;;;;;;5027439;28;20089;-87
2023/01/08 11:35:31;;;;;;;11.00;3.20;;;8.80;99.90;;;;;;5020608;28;20057;-88
2023/01/08 11:38:00;;;;;;;8.27;2.67;;;8.80;99.90;;;;;;5019872;28;20046;-88
2023/01/08 11:40:49;;;;;;;7.90;2.60;;;8.70;99.90;;;;;;5021215;28;20038;-88
2023/01/08 11:43:32;;;;;;;11.02;2.38;;;8.70;99.90;;;;;;5007977;28;20423;-86
2023/01/08 11:46:10;;;;;;;6.93;3.20;;;8.80;99.90;;;;;;5006931;28;20061;-87
2023/01/08 11:48:39;;;;;;;12.15;2.88;;;8.90;99.90;;;;;;5011677;28;20100;-87
2023/01/08 11:51:29;;;;;;;7.10;3.70;;;9.50;99.90;;;;;;5025751;28;20071;-86
2023/01/08 11:54:07;;;;;;;10.82;2.95;;;9.00;99.90;;;;;;5027040;28;20077;-86
2023/01/08 11:56:48;;;;;;;8.50;2.40;;;9.10;99.90;;;;;;5023055;28;20037;-87
2023/01/08 11:59:29;;;;;;;12.05;2.90;;;9.20;99.90;;;;;;5020611;28;20053;-86
2023/01/08 12:02:16;;;;;;;8.98;2.63;;;9.30;99.90;;;;;;5025190;28;20049;-88
2023/01/08 12:05:15;;;;;;;12.07;2.38;;;9.20;99.90;;;;;;5026993;28;20046;-90
2023/01/08 12:08:05;;;;;;;10.25;2.40;;;9.20;99.90;;;;;;5026283;28;20448;-86
2023/01/08 12:10:45;;;;;;;8.82;2.40;;;9.20;99.90;;;;;;5025698;28;20494;-88
2023/01/08 12:13:33;;;;;;;8.82;2.50;;;9.10;99.90;;;;;;5009383;28;20045;-87
2023/01/08 12:16:36;;;;;;;9.15;2.78;;;9.10;99.90;;;;;;5027114;28;20034;-89
2023/01/08 12:19:50;;;;;;;12.15;2.63;;;9.20;99.90;;;;;;5029035;28;20100;-87
2023/01/08 12:22:40;;;;;;;8.13;2.10;;;9.20;99.90;;;;;;5019549;28;20855;-87
2023/01/08 12:25:40;;;;;;;8.57;2.00;;;9.30;99.90;;;;;;5028734;28;20379;-86
2023/01/08 12:28:18;;;;;;;6.88;2.55;;;9.30;99.90;;;;;;5012070;28;20049;-84
2023/01/08 12:31:05;;;;;;;9.55;3.08;;;9.40;99.90;;;;;;5029142;28;20052;-87
2023/01/08 12:33:38;;;;;;;8.32;2.63;;;9.50;99.90;;;;;;5000641;28;20444;-86
2023/01/08 12:36:20;;;;;;;5.88;2.30;;;9.60;99.90;;;;;;5015392;28;20095;-87
2023/01/08 12:38:59;;;;;;;5.45;2.38;;;9.60;99.90;;;;;;5030107;28;20128;-88
2023/01/08 12:41:25;;;;;;;8.15;2.63;;;9.70;99.90;;;;;;5030548;28;20125;-87
2023/01/08 12:44:10;;;;;;;9.38;2.60;;;9.60;99.90;;;;;;5028955;28;20464;-88
2023/01/08 12:46:42;;;;;;;12.43;2.67;;;9.60;99.90;;;;;;5019424;28;20053;-86
2023/01/08 12:49:16;;;;;;;5.85;2.20;;;9.70;99.90;;;;;;5022131;28;20049;-87
2023/01/08 12:51:47;;;;;;;8.52;2.67;;;9.70;99.90;;;;;;5008776;28;20096;-87
2023/01/08 12:54:25;;;;;;;8.93;2.00;;;9.60;99.90;;;;;;5014219;28;20045;-86
2023/01/08 12:57:06;;;;;;;5.22;2.05;;;9.50;99.90;;;;;;5028462;28;20061;-86
2023/01/08 12:59:44;;;;;;;12.63;3.50;;;9.50;99.90;;;;;;5012165;28;20103;-86
2023/01/08 13:02:35;;;;;;;8.77;2.72;;;9.50;99.90;;;;;;5028757;28;20045;-87
2023/01/08 13:05:31;;;;;;;9.05;2.90;;;9.50;99.90;;;;;;5012901;28;20085;-87
2023/01/08 13:08:28;;;;;;;9.23;2.67;;;9.40;99.90;;;;;;5009945;28;20053;-87
2023/01/08 13:10:54;;;;;;;8.18;2.95;;;9.30;99.90;;;;;;5028620;28;20091;-87
2023/01/08 13:13:35;;;;;;;9.60;3.65;;;9.20;99.90;;;;;;5028783;28;20049;-88
2023/01/08 13:16:08;;;;;;;10.25;2.75;;;9.30;99.90;;;;;;5028686;28;20049;-86